Seward, NE

12:23 AM CST on December 10, 2016 (GMT -0600)
Suhr Lichty Insurance Downtown | | Change Station

Elev 1493 ft 40.91 °N, 97.10 °W | Updated 12 minutes ago

Overcast
Overcast
20.1 °F
Feels Like 20 °F
N
1.0
Wind Variable Wind from ESE
Gusts 2.0 mph

Today
High -- | Low -- °F
--% Chance of Precip.
Yesterday
High -- | Low -- °F
Precip. -- in
Pressure 30.53 in
Visibility 10.0 miles
Clouds Overcast 4300 ft
Windchill 20 °F
Dew Point 15 °F
Humidity 79%
Rainfall 0.00 in
Snow Depth Not available.
7:42 AM 5:00 PM
Waxing Gibbous, 81% visible
METAR KLNK 100554Z 10004KT 10SM OVC043 M05/M09 A3047 RMK AO2 SLP339 T10501094 11050 21050 410501161 56005
Pressure 30.53 in
Visibility 10.0 miles
Clouds Overcast 4300 ft
Windchill 20 °F
Dew Point 15 °F
Humidity 79%
Rainfall 0.00 in
Snow Depth Not available.
7:42 AM 5:00 PM
Waxing Gibbous, 81% visible
METAR KLNK 100554Z 10004KT 10SM OVC043 M05/M09 A3047 RMK AO2 SLP339 T10501094 11050 21050 410501161 56005

10-Day Weather Forecast

Almanac

Astronomy

Dec. 10, 2016 Rise Set
Actual Time
Civil Twilight
Nautical Twilight
Astronomical Twilight
Moon
Length of Visible Light
Length of Day
Tomorrow will be .
, % of the Moon is Illuminated

Today's Extremes

State Highs State Lows

Community

WunderPhotos

Upload Photos

1,956,527 photos uploaded!

WunderBlog® & News

Nearby

Air Quality

  Air Quality AQ Index Pollutant
Not available.

Snow Depth

Station Depth Elevation

Earthquake Activity

City Distance Mag. Time & Date
Minimum magnitude displayed is 2.5.

Coastal Water Temperatures

Place Temperature

Stations

Nearby Weather Stations

Station Location Temp. Windchill Dew Point Humidity Wind Precip. Elev Updated Type
                   

Watches & Warnings

There are currently no watches in effect.